Time;durP1;ratioP1;P1;durP2;ratioP2;P2;SDS_P1;SDS_P2;PMS_P1;PMS_P2;Temp;Humidity;BMP_temperature;BMP_pressure;BME280_temperature;BME280_humidity;BME280_pressure;Samples;Min_cycle;Max_cycle;Signal;HPM_P1;HPM_P2
2024/01/08 00:01:15;;;;;;;4.28;3.00;;;;;;;0.75;74.81;98459.81;5213380;22;20195;-87
2024/01/08 00:03:17;;;;;;;7.68;3.10;;;;;;;0.75;75.01;98463.25;5240239;22;20186;-87
2024/01/08 00:05:21;;;;;;;4.68;3.08;;;;;;;0.81;74.90;98460.50;5241145;22;20867;-87
2024/01/08 00:07:25;;;;;;;5.78;3.40;;;;;;;0.68;73.21;98459.13;5213839;22;20251;-88
2024/01/08 00:09:28;;;;;;;4.53;3.25;;;;;;;0.61;73.83;98461.88;5238318;22;20168;-89
2024/01/08 00:11:31;;;;;;;4.63;3.40;;;;;;;0.62;75.20;98463.56;5213269;22;20541;-88
2024/01/08 00:13:34;;;;;;;4.35;3.25;;;;;;;0.69;74.42;98462.53;5239294;22;20214;-88
2024/01/08 00:15:38;;;;;;;4.53;2.90;;;;;;;0.75;73.96;98464.94;5213534;22;20172;-87
2024/01/08 00:17:41;;;;;;;4.25;3.40;;;;;;;0.75;73.42;98460.69;5214534;22;20180;-87
2024/01/08 00:19:45;;;;;;;4.70;3.33;;;;;;;0.81;74.15;98460.50;5241467;22;20258;-87
2024/01/08 00:21:48;;;;;;;4.13;2.90;;;;;;;0.78;73.92;98467.44;5240836;22;20298;-85
2024/01/08 00:23:51;;;;;;;5.07;3.40;;;;;;;0.83;74.64;98470.72;5238298;22;20221;-83
2024/01/08 00:25:54;;;;;;;3.60;3.03;;;;;;;0.90;73.93;98469.72;5240749;22;20750;-83
2024/01/08 00:27:58;;;;;;;4.88;3.90;;;;;;;0.94;72.91;98465.31;5213293;22;20176;-83
2024/01/08 00:30:01;;;;;;;4.43;3.50;;;;;;;0.90;73.59;98472.28;5240959;22;20541;-84
2024/01/08 00:32:07;;;;;;;4.30;3.40;;;;;;;0.88;73.00;98459.50;5238984;22;20176;-84
2024/01/08 00:34:11;;;;;;;4.70;3.33;;;;;;;0.80;73.29;98456.28;5214058;22;20200;-84
2024/01/08 00:36:15;;;;;;;4.45;2.88;;;;;;;0.73;73.10;98462.44;5213178;22;20511;-84
2024/01/08 00:38:18;;;;;;;3.88;3.20;;;;;;;0.79;73.21;98469.97;5213555;22;20172;-84
2024/01/08 00:40:21;;;;;;;3.80;3.13;;;;;;;0.56;73.26;98462.00;5188739;22;20173;-83
2024/01/08 00:42:24;;;;;;;4.65;3.50;;;;;;;0.54;73.38;98460.31;5213404;22;20168;-84
2024/01/08 00:44:28;;;;;;;4.60;3.05;;;;;;;0.62;73.29;98463.56;5240356;22;20163;-84
2024/01/08 00:46:31;;;;;;;5.95;3.55;;;;;;;0.71;74.40;98460.78;5214238;22;20172;-84
2024/01/08 00:48:35;;;;;;;3.90;3.30;;;;;;;0.76;73.61;98464.91;5213603;22;20179;-83
2024/01/08 00:50:38;;;;;;;4.95;3.42;;;;;;;0.76;73.32;98459.78;5239925;22;20179;-83
2024/01/08 00:52:41;;;;;;;3.42;3.03;;;;;;;0.81;73.12;98464.81;5238959;22;20611;-84
2024/01/08 00:54:44;;;;;;;5.93;3.40;;;;;;;0.86;73.20;98471.53;5213234;22;20206;-84
2024/01/08 00:56:47;;;;;;;5.70;3.47;;;;;;;0.69;72.89;98459.97;5212789;22;20179;-85
2024/01/08 00:58:50;;;;;;;4.63;3.40;;;;;;;0.58;73.75;98467.09;5238756;22;20175;-84
2024/01/08 01:00:53;;;;;;;5.38;3.40;;;;;;;0.58;72.93;98464.50;5240434;22;20770;-84
2024/01/08 01:02:57;;;;;;;4.32;3.03;;;;;;;0.69;74.05;98473.66;5212824;22;20190;-84
2024/01/08 01:05:02;;;;;;;4.55;3.20;;;;;;;0.83;74.15;98473.31;5240644;22;20168;-84
2024/01/08 01:07:05;;;;;;;3.97;3.03;;;;;;;0.92;74.34;98476.50;5213427;22;20279;-84
2024/01/08 01:09:08;;;;;;;4.63;3.85;;;;;;;0.96;74.23;98466.13;5213196;22;20180;-83
2024/01/08 01:11:12;;;;;;;5.65;3.53;;;;;;;0.91;72.47;98474.81;5238173;22;20687;-84
2024/01/08 01:13:14;;;;;;;4.22;3.30;;;;;;;0.99;73.82;98472.88;5239492;22;20267;-84
2024/01/08 01:15:17;;;;;;;5.57;3.90;;;;;;;1.06;73.48;98480.41;5240140;22;20221;-84
2024/01/08 01:17:19;;;;;;;4.68;3.20;;;;;;;1.08;73.08;98476.09;5213883;22;20207;-84
2024/01/08 01:19:22;;;;;;;4.43;3.45;;;;;;;0.92;71.98;98476.50;5241066;22;20168;-84
2024/01/08 01:21:28;;;;;;;9.20;3.80;;;;;;;1.00;72.43;98480.56;5212946;22;20238;-85
2024/01/08 01:23:31;;;;;;;5.13;3.33;;;;;;;1.08;73.18;98488.06;5240603;22;20170;-83
2024/01/08 01:25:34;;;;;;;6.07;3.70;;;;;;;1.03;72.68;98474.50;5187338;22;20181;-83
2024/01/08 01:27:38;;;;;;;4.85;3.45;;;;;;;0.92;72.54;98484.22;5212182;22;20172;-84
2024/01/08 01:29:41;;;;;;;5.35;3.45;;;;;;;0.89;72.56;98473.16;5213619;22;20172;-84
2024/01/08 01:31:44;;;;;;;4.10;3.03;;;;;;;0.83;72.63;98481.88;5212216;22;20609;-87
2024/01/08 01:33:47;;;;;;;5.15;3.30;;;;;;;0.78;72.37;98472.56;5186337;22;20255;-89
2024/01/08 01:35:50;;;;;;;5.53;3.65;;;;;;;0.81;72.67;98482.78;5212351;22;20643;-88
2024/01/08 01:37:58;;;;;;;4.30;3.50;;;;;;;0.76;73.24;98482.03;5239872;22;20180;-88
2024/01/08 01:40:00;;;;;;;6.00;4.07;;;;;;;0.65;73.13;98482.28;5238840;22;20233;-87
2024/01/08 01:42:03;;;;;;;5.65;3.80;;;;;;;0.72;73.30;98478.72;5211365;22;20337;-87
2024/01/08 01:44:07;;;;;;;5.35;4.05;;;;;;;0.81;73.50;98482.78;5187281;22;20566;-87
2024/01/08 01:46:18;;;;;;;4.70;3.75;;;;;;;0.81;73.12;98478.47;5211872;22;20173;-87
2024/01/08 01:48:22;;;;;;;4.88;3.13;;;;;;;0.88;73.73;98479.19;5239702;22;20507;-87
2024/01/08 01:50:25;;;;;;;5.05;3.75;;;;;;;0.94;73.73;98487.56;5212708;22;20207;-87
2024/01/08 01:52:29;;;;;;;4.95;3.75;;;;;;;0.93;73.82;98473.03;5239650;22;20206;-87
2024/01/08 01:54:33;;;;;;;4.70;3.45;;;;;;;0.97;73.90;98490.06;5211986;22;20168;-88
2024/01/08 01:56:37;;;;;;;4.00;3.47;;;;;;;0.92;72.47;98483.34;5211939;22;20202;-88
2024/01/08 01:58:41;;;;;;;5.10;3.67;;;;;;;0.75;72.49;98473.50;5212954;22;20260;-88
2024/01/08 02:00:43;;;;;;;5.25;3.25;;;;;;;0.77;73.17;98481.19;5239301;22;20610;-87
2024/01/08 02:02:46;;;;;;;5.30;3.42;;;;;;;0.70;72.42;98483.03;5211739;22;20184;-87
2024/01/08 02:04:50;;;;;;;5.13;3.40;;;;;;;0.64;72.66;98475.47;5239929;22;20180;-88
2024/01/08 02:06:54;;;;;;;5.20;3.63;;;;;;;0.64;73.25;98475.47;5240500;22;20225;-88
2024/01/08 02:08:57;;;;;;;5.45;3.90;;;;;;;0.60;73.42;98479.00;5212606;22;20176;-88
2024/01/08 02:11:02;;;;;;;4.50;3.03;;;;;;;0.48;72.60;98469.03;5212376;22;20176;-88
2024/01/08 02:13:05;;;;;;;3.90;3.15;;;;;;;0.52;73.21;98469.78;5211378;22;20176;-87
2024/01/08 02:15:08;;;;;;;4.97;3.63;;;;;;;0.41;73.19;98473.47;5211676;22;20172;-87
2024/01/08 02:17:12;;;;;;;6.82;3.28;;;;;;;0.43;73.56;98470.00;5238788;22;20175;-87
2024/01/08 02:19:15;;;;;;;4.57;3.25;;;;;;;0.46;74.31;98466.53;5240354;22;20690;-87
2024/01/08 02:21:18;;;;;;;5.03;3.50;;;;;;;0.37;73.82;98467.56;5212420;22;20226;-88
2024/01/08 02:23:23;;;;;;;4.45;3.05;;;;;;;0.39;73.52;98462.41;5239472;22;20237;-87
2024/01/08 02:25:26;;;;;;;4.45;3.50;;;;;;;0.48;74.34;98469.03;5212172;22;20222;-88
2024/01/08 02:27:29;;;;;;;4.20;3.08;;;;;;;0.37;73.66;98459.03;5239477;22;20167;-89
2024/01/08 02:29:32;;;;;;;5.72;3.55;;;;;;;0.42;73.77;98452.06;5212237;22;20168;-88
2024/01/08 02:31:36;;;;;;;4.40;3.50;;;;;;;0.49;74.28;98447.59;5211569;22;20180;-87
2024/01/08 02:33:39;;;;;;;4.25;3.20;;;;;;;0.49;73.83;98452.75;5212512;22;20516;-87
2024/01/08 02:35:42;;;;;;;3.58;2.60;;;;;;;0.54;73.77;98458.63;5186456;22;20625;-87
2024/01/08 02:37:45;;;;;;;3.80;3.05;;;;;;;0.60;73.52;98457.63;5239757;22;20184;-88
2024/01/08 02:39:50;;;;;;;5.28;3.30;;;;;;;0.45;74.24;98463.09;5239819;22;20175;-88
2024/01/08 02:41:53;;;;;;;4.10;3.17;;;;;;;0.49;73.68;98457.03;5186047;22;20179;-84
2024/01/08 02:43:56;;;;;;;4.45;3.50;;;;;;;0.52;74.52;98450.09;5212692;22;20176;-83
2024/01/08 02:45:59;;;;;;;6.07;3.60;;;;;;;0.50;73.94;98451.88;5212062;22;20172;-84
2024/01/08 02:48:02;;;;;;;4.53;3.25;;;;;;;0.62;74.85;98458.44;5211853;22;20183;-84
2024/01/08 02:50:06;;;;;;;4.82;3.13;;;;;;;0.74;74.31;98461.56;5212725;22;20213;-83
2024/01/08 02:52:10;;;;;;;4.68;3.53;;;;;;;0.81;74.51;98459.69;5212491;22;20217;-84
2024/01/08 02:54:13;;;;;;;4.18;3.17;;;;;;;0.71;73.34;98455.66;5212229;22;20230;-84
2024/01/08 02:56:20;;;;;;;4.07;3.67;;;;;;;0.71;73.37;98453.94;5211815;22;20292;-84
2024/01/08 02:58:23;;;;;;;4.70;3.38;;;;;;;0.77;73.63;98461.47;5213088;22;20163;-84
2024/01/08 03:00:27;;;;;;;5.25;3.80;;;;;;;0.81;74.35;98457.94;5212821;22;20176;-83
2024/01/08 03:02:30;;;;;;;4.90;3.80;;;;;;;0.79;73.72;98462.28;5212176;22;20175;-84
2024/01/08 03:04:33;;;;;;;5.00;3.50;;;;;;;0.57;73.61;98458.56;5212402;22;20172;-83
2024/01/08 03:06:36;;;;;;;5.35;3.53;;;;;;;0.61;74.62;98459.31;5212329;22;20260;-85
2024/01/08 03:08:39;;;;;;;5.35;3.78;;;;;;;0.63;75.23;98463.53;5212534;22;20168;-84
2024/01/08 03:10:42;;;;;;;5.57;3.97;;;;;;;0.62;75.13;98466.13;5241157;22;20228;-83
2024/01/08 03:12:46;;;;;;;5.43;4.38;;;;;;;0.53;74.64;98471.47;5187880;22;20181;-84
2024/01/08 03:14:49;;;;;;;5.07;3.95;;;;;;;0.60;75.15;98473.88;5187921;22;20252;-83
2024/01/08 03:16:53;;;;;;;5.25;3.65;;;;;;;0.57;75.02;98473.94;5187825;22;20196;-83
2024/01/08 03:18:55;;;;;;;6.53;3.58;;;;;;;0.60;75.00;98473.00;5241976;22;20619;-84
2024/01/08 03:20:58;;;;;;;6.03;3.75;;;;;;;0.56;74.86;98468.84;5214614;22;20192;-83
2024/01/08 03:23:01;;;;;;;4.88;3.88;;;;;;;0.46;74.80;98471.66;5239256;22;20251;-84
2024/01/08 03:25:05;;;;;;;4.22;3.35;;;;;;;0.46;74.73;98478.44;5212643;22;20239;-83
2024/01/08 03:27:09;;;;;;;5.60;4.13;;;;;;;0.46;74.83;98478.44;5188439;22;20197;-84
2024/01/08 03:29:13;;;;;;;4.53;3.22;;;;;;;0.46;75.13;98469.94;5214552;22;20794;-83
2024/01/08 03:31:15;;;;;;;4.13;3.50;;;;;;;0.50;75.33;98472.38;5240178;22;20206;-85
2024/01/08 03:33:18;;;;;;;4.93;3.40;;;;;;;0.48;74.96;98476.72;5212701;22;20172;-84
2024/01/08 03:35:22;;;;;;;5.43;3.85;;;;;;;0.56;74.81;98477.38;5212734;22;20172;-84
2024/01/08 03:37:25;;;;;;;4.88;2.97;;;;;;;0.55;74.24;98488.50;5240285;22;20226;-83
2024/01/08 03:39:28;;;;;;;4.40;3.30;;;;;;;0.57;73.78;98486.78;5187801;22;20187;-83
2024/01/08 03:41:31;;;;;;;5.80;3.63;;;;;;;0.62;74.83;98482.38;5241668;22;20199;-84
2024/01/08 03:43:34;;;;;;;4.60;3.50;;;;;;;0.56;73.64;98474.81;5214167;22;20176;-83
2024/01/08 03:45:39;;;;;;;4.82;3.10;;;;;;;0.50;72.93;98481.81;5213197;22;20184;-83
2024/01/08 03:47:42;;;;;;;4.72;3.50;;;;;;;0.37;73.25;98474.44;5188571;22;20173;-84
2024/01/08 03:49:44;;;;;;;5.70;3.90;;;;;;;0.43;74.35;98485.38;5214340;22;20180;-86
2024/01/08 03:51:47;;;;;;;4.82;3.53;;;;;;;0.49;74.42;98491.22;5187482;22;20208;-83
2024/01/08 03:53:51;;;;;;;4.40;3.60;;;;;;;0.45;73.82;98477.66;5213423;22;20640;-84
2024/01/08 03:55:54;;;;;;;4.75;3.70;;;;;;;0.51;74.72;98481.78;5213064;22;20176;-84
2024/01/08 03:57:57;;;;;;;4.63;3.33;;;;;;;0.53;74.53;98482.56;5214231;22;20176;-83
2024/01/08 04:00:02;;;;;;;6.03;3.53;;;;;;;0.57;73.73;98486.78;5240628;22;20286;-84
2024/01/08 04:02:14;;;;;;;4.60;3.50;;;;;;;0.59;72.79;98482.44;5213184;22;20210;-84
2024/01/08 04:04:18;;;;;;;4.13;3.10;;;;;;;0.60;73.31;98489.25;5213677;22;20263;-84
2024/01/08 04:06:22;;;;;;;5.80;3.58;;;;;;;0.67;73.77;98489.97;5213948;22;20259;-83
2024/01/08 04:08:25;;;;;;;7.07;4.72;;;;;;;0.70;73.18;98505.28;5212177;22;20183;-84
2024/01/08 04:10:28;;;;;;;5.65;3.97;;;;;;;0.60;73.54;98488.41;5213854;22;20227;-84
2024/01/08 04:12:32;;;;;;;5.90;4.00;;;;;;;0.49;73.31;98487.81;5212980;22;20659;-83
2024/01/08 04:14:34;;;;;;;5.28;3.70;;;;;;;0.44;73.27;98492.22;5212969;22;20210;-85
2024/01/08 04:16:40;;;;;;;5.22;3.65;;;;;;;0.43;73.13;98487.13;5213384;22;20200;-84
2024/01/08 04:18:45;;;;;;;4.07;3.53;;;;;;;0.50;73.94;98492.06;5214409;22;20222;-84
2024/01/08 04:20:47;;;;;;;7.50;4.10;;;;;;;0.54;74.41;98494.53;5213962;22;20691;-83
2024/01/08 04:22:51;;;;;;;6.00;3.92;;;;;;;0.59;73.67;98494.44;5186804;22;20173;-84
2024/01/08 04:24:54;;;;;;;5.18;3.50;;;;;;;0.66;73.46;98498.53;5212390;22;20204;-84
2024/01/08 04:26:56;;;;;;;5.38;3.80;;;;;;;0.74;72.98;98506.91;5214104;22;20449;-83
2024/01/08 04:28:59;;;;;;;5.22;4.10;;;;;;;0.61;72.72;98501.19;5213450;22;20176;-84
2024/01/08 04:31:02;;;;;;;5.55;4.00;;;;;;;0.39;73.00;98500.88;5213134;22;20203;-83
2024/01/08 04:33:06;;;;;;;6.38;4.07;;;;;;;0.40;73.57;98502.56;5187889;22;20210;-83
2024/01/08 04:35:11;;;;;;;5.40;3.92;;;;;;;0.49;73.50;98506.59;5214148;22;20180;-83
2024/01/08 04:37:14;;;;;;;5.57;3.83;;;;;;;0.42;73.32;98505.94;5213895;22;20196;-83
2024/01/08 04:39:17;;;;;;;4.50;3.83;;;;;;;0.32;74.01;98507.03;5187265;22;20275;-83
2024/01/08 04:41:20;;;;;;;5.68;4.10;;;;;;;0.15;72.83;98501.41;5238937;22;21157;-83
2024/01/08 04:43:24;;;;;;;4.93;3.55;;;;;;;0.07;72.91;98508.41;5213273;22;20173;-84
2024/01/08 04:45:27;;;;;;;4.57;3.35;;;;;;;0.02;73.02;98508.50;5238747;22;20249;-83
2024/01/08 04:47:30;;;;;;;4.82;3.60;;;;;;;-0.09;73.21;98495.94;5239193;22;20221;-82
2024/01/08 04:49:33;;;;;;;5.43;4.28;;;;;;;-0.18;73.16;98501.25;5241046;22;20200;-82
2024/01/08 04:51:38;;;;;;;4.75;3.80;;;;;;;-0.25;73.50;98499.69;5239946;22;20179;-83
2024/01/08 04:53:40;;;;;;;5.20;3.75;;;;;;;-0.18;74.15;98503.81;5213618;22;20648;-83
2024/01/08 04:55:43;;;;;;;4.80;3.47;;;;;;;-0.18;74.07;98503.81;5238415;22;20183;-84
2024/01/08 04:57:46;;;;;;;5.38;3.42;;;;;;;-0.22;73.86;98510.72;5240751;22;20199;-84
2024/01/08 04:59:49;;;;;;;4.45;3.50;;;;;;;-0.24;74.40;98507.34;5239505;22;20178;-83
2024/01/08 05:01:52;;;;;;;5.88;3.80;;;;;;;-0.15;74.38;98508.88;5240972;22;20168;-84
2024/01/08 05:03:54;;;;;;;7.38;3.85;;;;;;;-0.10;74.32;98505.34;5213240;22;20180;-83
2024/01/08 05:05:57;;;;;;;6.13;3.97;;;;;;;-0.16;74.92;98508.03;5240908;22;20218;-83
2024/01/08 05:08:02;;;;;;;4.13;3.60;;;;;;;-0.11;74.71;98510.50;5212752;22;20172;-83
2024/01/08 05:10:06;;;;;;;4.57;3.45;;;;;;;-0.05;74.56;98515.50;5212672;22;20173;-83
2024/01/08 05:12:10;;;;;;;5.65;4.03;;;;;;;0.03;75.55;98517.88;5239807;22;20271;-87
2024/01/08 05:14:13;;;;;;;4.88;3.75;;;;;;;0.03;74.25;98519.59;5240969;22;20203;-88
2024/01/08 05:16:16;;;;;;;7.43;3.55;;;;;;;0.02;74.56;98523.03;5212386;22;20379;-88
2024/01/08 05:18:19;;;;;;;6.05;3.90;;;;;;;0.12;74.16;98527.97;5187275;22;20193;-87
2024/01/08 05:20:23;;;;;;;5.43;4.10;;;;;;;0.09;73.53;98527.16;5213042;22;20258;-86
2024/01/08 05:22:26;;;;;;;6.43;4.10;;;;;;;0.09;72.88;98522.03;5236848;22;20562;-87
2024/01/08 05:24:30;;;;;;;4.00;3.35;;;;;;;0.00;72.76;98522.25;5212101;22;20507;-87
2024/01/08 05:26:33;;;;;;;4.72;3.30;;;;;;;-0.01;72.20;98511.13;5186973;22;20591;-88
2024/01/08 05:28:36;;;;;;;5.63;3.60;;;;;;;0.05;71.67;98520.41;5239104;22;20270;-87
2024/01/08 05:30:39;;;;;;;4.25;3.20;;;;;;;0.04;71.80;98511.88;5187110;22;20308;-87
2024/01/08 05:32:42;;;;;;;7.20;4.10;;;;;;;0.00;70.74;98517.13;5211483;22;20182;-87
2024/01/08 05:34:46;;;;;;;4.50;2.95;;;;;;;-0.02;70.64;98520.56;5240448;22;20172;-88
2024/01/08 05:36:49;;;;;;;6.30;3.38;;;;;;;-0.12;70.45;98513.94;5212637;22;20226;-86
2024/01/08 05:38:52;;;;;;;7.15;3.80;;;;;;;-0.05;70.76;98525.75;5240036;22;20285;-88
2024/01/08 05:40:56;;;;;;;5.25;3.30;;;;;;;0.00;71.14;98524.81;5212333;22;20687;-87
2024/01/08 05:43:00;;;;;;;5.05;3.17;;;;;;;0.05;70.21;98533.25;5238557;22;20623;-87
2024/01/08 05:45:03;;;;;;;4.80;3.55;;;;;;;0.10;70.32;98531.41;5236854;22;20237;-86
2024/01/08 05:47:07;;;;;;;5.82;3.10;;;;;;;0.17;70.57;98535.56;5237308;22;20271;-88
2024/01/08 05:49:11;;;;;;;5.07;3.30;;;;;;;0.27;70.58;98524.22;5240366;22;20175;-88
2024/01/08 05:51:14;;;;;;;4.68;3.40;;;;;;;0.12;69.86;98524.53;5240610;22;20176;-87
2024/01/08 05:53:17;;;;;;;5.05;3.20;;;;;;;-0.01;69.93;98518.81;5240118;22;20168;-87
2024/01/08 05:55:21;;;;;;;4.15;3.05;;;;;;;0.04;70.59;98531.53;5240139;22;20167;-87
2024/01/08 05:57:25;;;;;;;4.35;3.20;;;;;;;0.01;70.23;98529.03;5213168;22;20172;-87
2024/01/08 05:59:28;;;;;;;5.25;3.50;;;;;;;-0.01;69.86;98534.19;5240902;22;20202;-86
2024/01/08 06:01:31;;;;;;;5.47;3.63;;;;;;;-0.04;70.18;98527.47;5212744;22;20176;-86
2024/01/08 06:03:34;;;;;;;4.63;3.05;;;;;;;-0.09;70.53;98522.44;5238930;22;20206;-88
2024/01/08 06:05:38;;;;;;;4.82;3.33;;;;;;;-0.02;70.53;98523.13;5239421;22;20247;-87
2024/01/08 06:07:41;;;;;;;5.43;2.97;;;;;;;-0.01;70.92;98529.06;5213794;22;20169;-87
2024/01/08 06:09:44;;;;;;;6.03;3.72;;;;;;;-0.11;70.37;98524.16;5212299;22;20168;-85
2024/01/08 06:11:47;;;;;;;6.22;3.45;;;;;;;-0.05;71.37;98534.28;5212441;22;20221;-85
2024/01/08 06:13:51;;;;;;;4.03;3.00;;;;;;;-0.01;70.96;98528.22;5239788;22;20230;-85
2024/01/08 06:15:55;;;;;;;4.60;3.38;;;;;;;0.00;70.94;98535.06;5241314;22;20168;-86
2024/01/08 06:17:58;;;;;;;5.15;3.17;;;;;;;0.01;70.63;98532.44;5209722;22;20302;-86
2024/01/08 06:20:01;;;;;;;5.43;4.03;;;;;;;0.01;70.72;98532.44;5241289;22;20168;-86
2024/01/08 06:22:05;;;;;;;8.13;4.57;;;;;;;0.02;70.84;98534.13;5240400;22;20188;-83
2024/01/08 06:24:08;;;;;;;5.13;4.15;;;;;;;0.06;71.34;98525.53;5213628;22;20184;-83
2024/01/08 06:26:11;;;;;;;5.07;3.58;;;;;;;0.16;71.44;98538.97;5240731;22;20506;-84
2024/01/08 06:28:14;;;;;;;4.68;3.10;;;;;;;0.24;70.90;98531.97;5212498;22;20169;-84
2024/01/08 06:30:19;;;;;;;5.05;3.85;;;;;;;0.32;71.14;98537.81;5184789;22;20382;-84
2024/01/08 06:32:22;;;;;;;5.60;3.90;;;;;;;0.28;70.47;98538.72;5211793;22;20222;-83
2024/01/08 06:34:25;;;;;;;5.70;3.70;;;;;;;0.25;70.13;98536.22;5211332;22;20258;-84
2024/01/08 06:36:29;;;;;;;5.88;3.30;;;;;;;0.20;70.29;98527.81;5239552;22;20181;-82
2024/01/08 06:38:32;;;;;;;6.13;3.95;;;;;;;0.30;70.84;98536.97;5213366;22;20516;-83
2024/01/08 06:40:35;;;;;;;5.78;3.40;;;;;;;0.30;70.90;98537.84;5213080;22;20207;-82
2024/01/08 06:42:38;;;;;;;5.70;4.20;;;;;;;0.24;70.72;98537.09;5211840;22;20650;-84
2024/01/08 06:45:01;;;;;;;4.97;3.40;;;;;;;0.20;70.88;98540.63;5213038;22;20176;-84
2024/01/08 06:47:07;;;;;;;6.13;3.67;;;;;;;0.11;70.32;98540.81;5187576;22;20648;-83
2024/01/08 06:49:10;;;;;;;5.38;3.90;;;;;;;0.11;70.85;98539.06;5212111;22;20234;-84
2024/01/08 06:51:14;;;;;;;7.10;3.80;;;;;;;0.14;71.07;98543.31;5213556;22;20172;-83
2024/01/08 06:53:17;;;;;;;5.68;3.88;;;;;;;0.20;70.92;98544.00;5212768;22;20200;-83
2024/01/08 06:55:20;;;;;;;4.97;3.75;;;;;;;0.20;71.18;98549.13;5187586;22;20508;-84
2024/01/08 06:57:23;;;;;;;7.47;3.90;;;;;;;0.25;71.29;98543.91;5213557;22;20199;-84
2024/01/08 06:59:26;;;;;;;5.32;3.72;;;;;;;0.25;70.65;98551.63;5213765;22;20188;-84
2024/01/08 07:01:28;;;;;;;6.78;4.35;;;;;;;0.21;71.03;98550.84;5240852;22;20753;-82
2024/01/08 07:03:34;;;;;;;4.43;3.33;;;;;;;0.23;71.30;98549.06;5212917;22;20620;-84
2024/01/08 07:05:38;;;;;;;7.68;3.95;;;;;;;0.23;71.26;98549.06;5239578;22;20198;-84
2024/01/08 07:07:41;;;;;;;5.90;3.90;;;;;;;0.20;71.33;98553.44;5240354;22;20395;-83
2024/01/08 07:09:44;;;;;;;5.47;4.18;;;;;;;0.23;71.01;98548.25;5240403;22;20163;-84
2024/01/08 07:11:48;;;;;;;4.57;3.63;;;;;;;0.25;71.26;98546.47;5212913;22;20207;-83
2024/01/08 07:13:51;;;;;;;7.10;4.13;;;;;;;0.24;70.65;98549.91;5213320;22;20176;-83
2024/01/08 07:15:55;;;;;;;5.95;4.45;;;;;;;0.13;70.74;98546.72;5212861;22;20195;-82
2024/01/08 07:17:57;;;;;;;8.38;3.85;;;;;;;0.15;71.20;98550.09;5241080;22;20172;-83
2024/01/08 07:20:03;;;;;;;5.50;3.90;;;;;;;0.17;71.17;98553.50;5213569;22;20169;-82
2024/01/08 07:22:06;;;;;;;6.40;4.15;;;;;;;0.19;71.33;98556.84;5239905;22;20198;-82
2024/01/08 07:24:10;;;;;;;5.63;3.47;;;;;;;0.18;70.76;98560.28;5212906;22;20643;-81
2024/01/08 07:26:14;;;;;;;5.57;3.40;;;;;;;0.04;70.33;98557.16;5211696;22;20190;-82
2024/01/08 07:28:17;;;;;;;5.32;3.92;;;;;;;0.02;70.97;98559.75;5188150;22;20513;-83
2024/01/08 07:30:21;;;;;;;6.70;3.58;;;;;;;0.04;70.92;98559.72;5238668;22;20176;-82
2024/01/08 07:32:24;;;;;;;5.40;3.63;;;;;;;0.02;70.76;98558.94;5211932;22;20214;-83
2024/01/08 07:34:27;;;;;;;4.25;3.20;;;;;;;0.05;71.05;98564.00;5239748;22;20175;-83
2024/01/08 07:36:31;;;;;;;5.75;4.03;;;;;;;0.08;71.45;98561.38;5212249;22;20263;-82
2024/01/08 07:38:34;;;;;;;5.68;4.25;;;;;;;0.06;70.93;98560.53;5239839;22;20278;-82
2024/01/08 07:40:39;;;;;;;6.30;3.67;;;;;;;0.10;71.37;98557.03;5238438;22;20179;-82
2024/01/08 07:42:43;;;;;;;5.32;3.95;;;;;;;0.13;72.02;98562.94;5211297;22;20196;-83
2024/01/08 07:44:46;;;;;;;5.63;4.00;;;;;;;0.09;71.10;98560.47;5235748;22;20258;-85
2024/01/08 07:46:49;;;;;;;6.15;4.07;;;;;;;0.08;70.86;98563.94;5208928;22;20263;-83
2024/01/08 07:48:53;;;;;;;8.18;4.45;;;;;;;0.09;70.84;98565.59;5210326;22;20172;-82
2024/01/08 07:50:55;;;;;;;8.95;4.50;;;;;;;0.16;71.45;98562.88;5238649;22;20181;-82
2024/01/08 07:53:00;;;;;;;7.90;5.30;;;;;;;0.28;71.54;98574.63;5210729;22;20816;-82
2024/01/08 07:55:02;;;;;;;11.63;6.13;;;;;;;0.27;70.89;98576.34;5210792;22;20577;-81
2024/01/08 07:57:06;;;;;;;6.28;4.05;;;;;;;0.30;71.15;98575.41;5239584;22;20171;-81
2024/01/08 07:59:13;;;;;;;7.63;4.68;;;;;;;0.25;70.02;98582.38;5241826;22;20913;-83
2024/01/08 08:01:17;;;;;;;8.00;4.60;;;;;;;0.28;70.33;98582.31;5240992;22;20604;-81
2024/01/08 08:03:20;;;;;;;5.35;3.75;;;;;;;0.19;70.29;98590.19;5213777;22;20255;-82
2024/01/08 08:05:23;;;;;;;5.25;3.70;;;;;;;0.17;70.83;98584.25;5242206;22;20175;-82
2024/01/08 08:07:36;;;;;;;7.47;4.60;;;;;;;0.03;70.97;98599.91;5214899;22;20203;-83
2024/01/08 08:09:40;;;;;;;4.68;3.35;;;;;;;-0.04;70.32;98586.41;5213585;22;20645;-82
2024/01/08 08:11:43;;;;;;;5.93;3.90;;;;;;;-0.06;70.94;98591.56;5240731;22;20210;-82
2024/01/08 08:13:47;;;;;;;5.22;3.95;;;;;;;-0.07;70.94;98594.97;5214215;22;20179;-81
2024/01/08 08:15:50;;;;;;;6.05;4.22;;;;;;;-0.01;71.63;98600.81;5188431;22;20543;-83
2024/01/08 08:17:54;;;;;;;5.65;3.50;;;;;;;-0.01;71.39;98602.56;5214767;22;20180;-81
2024/01/08 08:19:56;;;;;;;5.88;4.28;;;;;;;-0.01;70.71;98601.72;5214894;22;20222;-82
2024/01/08 08:21:59;;;;;;;5.90;3.70;;;;;;;-0.01;71.25;98605.94;5238705;22;20225;-82
2024/01/08 08:24:03;;;;;;;5.95;3.83;;;;;;;-0.02;70.59;98605.97;5210505;22;20625;-82
2024/01/08 08:26:08;;;;;;;7.78;4.45;;;;;;;-0.01;71.82;98609.41;5239987;22;20675;-82
2024/01/08 08:28:18;;;;;;;6.53;4.00;;;;;;;0.02;71.23;98615.31;5240956;22;20171;-82
2024/01/08 08:30:22;;;;;;;6.72;3.80;;;;;;;0.02;70.85;98610.19;5214544;22;20655;-82
2024/01/08 08:32:26;;;;;;;4.70;3.30;;;;;;;0.03;70.40;98612.72;5213188;22;20620;-82
2024/01/08 08:34:30;;;;;;;6.03;3.53;;;;;;;-0.09;70.62;98616.38;5214040;22;20176;-82
2024/01/08 08:36:33;;;;;;;5.45;3.45;;;;;;;-0.05;70.90;98618.84;5213672;22;20259;-81
2024/01/08 08:38:36;;;;;;;5.53;3.53;;;;;;;-0.10;71.36;98623.22;5212663;22;20707;-82
2024/01/08 08:40:43;;;;;;;5.38;3.78;;;;;;;-0.07;71.11;98618.03;5240699;22;20191;-81
2024/01/08 08:42:47;;;;;;;6.25;4.25;;;;;;;-0.02;70.94;98623.91;5239518;22;20171;-81
2024/01/08 08:44:50;;;;;;;5.25;3.80;;;;;;;-0.12;70.83;98627.53;5212331;22;20169;-82
2024/01/08 08:46:53;;;;;;;5.50;4.22;;;;;;;-0.30;71.27;98632.97;5240788;22;20240;-81
2024/01/08 08:48:56;;;;;;;6.88;4.28;;;;;;;-0.21;71.96;98625.13;5238666;22;20273;-82
2024/01/08 08:51:00;;;;;;;5.35;3.90;;;;;;;-0.08;71.48;98636.84;5213004;22;20234;-81
2024/01/08 08:53:03;;;;;;;5.50;3.67;;;;;;;-0.02;71.26;98636.72;5212805;22;20195;-82
2024/01/08 08:55:07;;;;;;;8.43;5.25;;;;;;;0.00;71.25;98629.88;5211874;22;20267;-81
2024/01/08 08:57:13;;;;;;;5.20;3.58;;;;;;;0.08;70.81;98638.25;5213874;22;20198;-82
2024/01/08 08:59:16;;;;;;;5.90;4.22;;;;;;;0.13;71.21;98649.25;5213600;22;20180;-81
2024/01/08 09:01:20;;;;;;;6.28;4.50;;;;;;;-0.07;70.04;98648.78;5212272;22;20180;-81
2024/01/08 09:03:26;;;;;;;4.80;3.70;;;;;;;-0.06;70.46;98634.25;5240435;22;20175;-81
2024/01/08 09:05:29;;;;;;;5.75;3.33;;;;;;;-0.06;70.32;98649.63;5213595;22;20173;-82
2024/01/08 09:07:42;;;;;;;6.00;4.38;;;;;;;-0.13;70.12;98635.25;5213054;22;20179;-81
2024/01/08 09:09:45;;;;;;;4.82;3.15;;;;;;;-0.11;70.44;98644.56;5212800;22;20172;-82
2024/01/08 09:11:49;;;;;;;5.85;3.83;;;;;;;-0.05;70.57;98653.88;5212884;22;20180;-81
2024/01/08 09:13:51;;;;;;;6.43;3.95;;;;;;;-0.06;70.51;98653.06;5240364;22;20263;-82
2024/01/08 09:15:56;;;;;;;6.47;4.10;;;;;;;-0.01;70.59;98655.53;5214000;22;20168;-80
2024/01/08 09:17:58;;;;;;;6.25;3.80;;;;;;;0.03;70.71;98652.84;5213736;22;20180;-82
2024/01/08 09:20:02;;;;;;;5.43;3.65;;;;;;;0.07;70.67;98657.06;5213504;22;20196;-81
2024/01/08 09:22:05;;;;;;;4.97;3.58;;;;;;;0.16;70.45;98667.97;5236541;22;20202;-83
2024/01/08 09:24:07;;;;;;;6.30;4.10;;;;;;;0.09;69.53;98675.81;5213473;22;20711;-82
2024/01/08 09:26:11;;;;;;;5.45;3.80;;;;;;;0.01;69.48;98672.56;5211768;22;20256;-80
2024/01/08 09:28:14;;;;;;;5.47;3.65;;;;;;;0.04;70.01;98673.31;5213537;22;20207;-81
2024/01/08 09:30:19;;;;;;;5.68;3.70;;;;;;;0.02;70.29;98671.69;5212121;22;20270;-82
2024/01/08 09:32:24;;;;;;;5.25;3.50;;;;;;;-0.02;70.19;98675.16;5185812;22;20263;-81
2024/01/08 09:34:27;;;;;;;5.45;3.65;;;;;;;-0.01;70.72;98674.31;5214317;22;20233;-82
2024/01/08 09:36:31;;;;;;;5.60;3.42;;;;;;;-0.07;70.35;98671.84;5187460;22;20275;-81
2024/01/08 09:38:34;;;;;;;5.05;3.60;;;;;;;-0.13;70.32;98679.66;5214061;22;20264;-82
2024/01/08 09:40:36;;;;;;;6.32;3.85;;;;;;;-0.18;70.57;98668.63;5241499;22;20195;-81
2024/01/08 09:42:39;;;;;;;5.78;3.80;;;;;;;-0.21;70.41;98672.94;5238750;22;20171;-81
2024/01/08 09:44:47;;;;;;;11.93;7.82;;;;;;;-0.22;70.95;98673.84;5213883;22;20619;-81
2024/01/08 09:46:51;;;;;;;5.82;3.75;;;;;;;-0.24;70.76;98675.56;5241035;22;20196;-82